sensor_id;sensor_type;location;lat;lon;timestamp;P1;durP1;ratioP1;P2;durP2;ratioP2
966;SDS011;56108;48.730;9.304;2023-07-22T00:00:56;2.50;;;2.30;;
966;SDS011;56108;48.730;9.304;2023-07-22T00:03:05;3.58;;;2.50;;
966;SDS011;56108;48.730;9.304;2023-07-22T00:05:13;2.97;;;2.75;;
966;SDS011;56108;48.730;9.304;2023-07-22T00:07:26;2.33;;;2.22;;
966;SDS011;56108;48.730;9.304;2023-07-22T00:09:37;2.88;;;2.67;;
966;SDS011;56108;48.730;9.304;2023-07-22T00:11:46;2.78;;;2.58;;
966;SDS011;56108;48.730;9.304;2023-07-22T00:13:57;2.83;;;2.58;;
966;SDS011;56108;48.730;9.304;2023-07-22T00:16:06;3.55;;;3.25;;
966;SDS011;56108;48.730;9.304;2023-07-22T00:18:15;3.78;;;3.47;;
966;SDS011;56108;48.730;9.304;2023-07-22T00:20:23;5.93;;;4.15;;
966;SDS011;56108;48.730;9.304;2023-07-22T00:22:34;6.25;;;5.65;;
966;SDS011;56108;48.730;9.304;2023-07-22T00:24:45;6.20;;;5.32;;
966;SDS011;56108;48.730;9.304;2023-07-22T00:26:53;7.72;;;5.25;;
966;SDS011;56108;48.730;9.304;2023-07-22T00:29:02;4.85;;;4.45;;
966;SDS011;56108;48.730;9.304;2023-07-22T00:31:10;4.75;;;3.90;;
966;SDS011;56108;48.730;9.304;2023-07-22T00:33:19;4.32;;;3.92;;
966;SDS011;56108;48.730;9.304;2023-07-22T00:35:28;3.67;;;3.38;;
966;SDS011;56108;48.730;9.304;2023-07-22T00:37:37;3.53;;;3.22;;
966;SDS011;56108;48.730;9.304;2023-07-22T00:39:48;4.03;;;3.63;;
966;SDS011;56108;48.730;9.304;2023-07-22T00:41:56;3.60;;;3.30;;
966;SDS011;56108;48.730;9.304;2023-07-22T00:44:04;4.57;;;3.97;;
966;SDS011;56108;48.730;9.304;2023-07-22T00:46:12;4.13;;;3.72;;
966;SDS011;56108;48.730;9.304;2023-07-22T00:48:20;3.40;;;3.10;;
966;SDS011;56108;48.730;9.304;2023-07-22T00:50:32;3.35;;;3.05;;
966;SDS011;56108;48.730;9.304;2023-07-22T00:52:44;2.67;;;2.47;;
966;SDS011;56108;48.730;9.304;2023-07-22T00:54:55;2.83;;;2.63;;
966;SDS011;56108;48.730;9.304;2023-07-22T00:57:06;6.22;;;2.88;;
966;SDS011;56108;48.730;9.304;2023-07-22T00:59:14;4.68;;;2.90;;
966;SDS011;56108;48.730;9.304;2023-07-22T01:01:24;3.45;;;2.90;;
966;SDS011;56108;48.730;9.304;2023-07-22T01:03:32;3.40;;;3.20;;
966;SDS011;56108;48.730;9.304;2023-07-22T01:05:41;2.97;;;2.67;;
966;SDS011;56108;48.730;9.304;2023-07-22T01:07:50;3.92;;;3.05;;
966;SDS011;56108;48.730;9.304;2023-07-22T01:10:01;3.30;;;2.83;;
966;SDS011;56108;48.730;9.304;2023-07-22T01:12:11;4.20;;;3.78;;
966;SDS011;56108;48.730;9.304;2023-07-22T01:14:19;3.15;;;2.85;;
966;SDS011;56108;48.730;9.304;2023-07-22T01:16:27;4.05;;;3.67;;
966;SDS011;56108;48.730;9.304;2023-07-22T01:18:36;3.30;;;3.00;;
966;SDS011;56108;48.730;9.304;2023-07-22T01:20:46;4.95;;;4.35;;
966;SDS011;56108;48.730;9.304;2023-07-22T01:23:00;3.70;;;3.35;;
966;SDS011;56108;48.730;9.304;2023-07-22T01:25:09;3.65;;;3.33;;
966;SDS011;56108;48.730;9.304;2023-07-22T01:27:18;4.82;;;3.13;;
966;SDS011;56108;48.730;9.304;2023-07-22T01:29:26;3.08;;;2.88;;
966;SDS011;56108;48.730;9.304;2023-07-22T01:31:35;4.18;;;3.40;;
966;SDS011;56108;48.730;9.304;2023-07-22T01:33:43;2.88;;;2.67;;
966;SDS011;56108;48.730;9.304;2023-07-22T01:35:51;3.45;;;2.92;;
966;SDS011;56108;48.730;9.304;2023-07-22T01:38:02;3.70;;;3.25;;
966;SDS011;56108;48.730;9.304;2023-07-22T01:40:11;2.90;;;2.70;;
966;SDS011;56108;48.730;9.304;2023-07-22T01:42:20;2.10;;;1.95;;
966;SDS011;56108;48.730;9.304;2023-07-22T01:44:28;2.90;;;2.60;;
966;SDS011;56108;48.730;9.304;2023-07-22T01:46:36;2.55;;;2.35;;
966;SDS011;56108;48.730;9.304;2023-07-22T01:48:47;2.72;;;2.53;;
966;SDS011;56108;48.730;9.304;2023-07-22T01:50:55;2.60;;;2.40;;
966;SDS011;56108;48.730;9.304;2023-07-22T01:53:08;2.55;;;2.35;;
966;SDS011;56108;48.730;9.304;2023-07-22T01:55:16;4.20;;;3.28;;
966;SDS011;56108;48.730;9.304;2023-07-22T01:57:27;3.33;;;2.65;;
966;SDS011;56108;48.730;9.304;2023-07-22T01:59:35;2.45;;;2.25;;
966;SDS011;56108;48.730;9.304;2023-07-22T02:01:43;5.00;;;2.88;;
966;SDS011;56108;48.730;9.304;2023-07-22T02:03:53;2.90;;;2.55;;
966;SDS011;56108;48.730;9.304;2023-07-22T02:06:02;2.85;;;2.65;;
966;SDS011;56108;48.730;9.304;2023-07-22T02:08:13;3.90;;;2.75;;
966;SDS011;56108;48.730;9.304;2023-07-22T02:10:22;3.00;;;2.70;;
966;SDS011;56108;48.730;9.304;2023-07-22T02:12:30;3.33;;;3.03;;
966;SDS011;56108;48.730;9.304;2023-07-22T02:14:35;3.10;;;2.85;;
966;SDS011;56108;48.730;9.304;2023-07-22T02:16:44;3.38;;;3.10;;
966;SDS011;56108;48.730;9.304;2023-07-22T02:18:52;3.00;;;2.80;;
966;SDS011;56108;48.730;9.304;2023-07-22T02:21:02;3.00;;;2.53;;
966;SDS011;56108;48.730;9.304;2023-07-22T02:23:12;4.18;;;3.53;;
966;SDS011;56108;48.730;9.304;2023-07-22T02:25:21;3.08;;;2.78;;
966;SDS011;56108;48.730;9.304;2023-07-22T02:27:31;4.82;;;4.28;;
966;SDS011;56108;48.730;9.304;2023-07-22T02:29:39;4.35;;;3.10;;
966;SDS011;56108;48.730;9.304;2023-07-22T02:31:48;3.60;;;3.20;;
966;SDS011;56108;48.730;9.304;2023-07-22T02:33:56;3.60;;;3.00;;
966;SDS011;56108;48.730;9.304;2023-07-22T02:36:05;3.65;;;3.35;;
966;SDS011;56108;48.730;9.304;2023-07-22T02:38:17;3.50;;;3.05;;
966;SDS011;56108;48.730;9.304;2023-07-22T02:40:25;4.03;;;3.22;;
966;SDS011;56108;48.730;9.304;2023-07-22T02:42:33;2.60;;;2.40;;
966;SDS011;56108;48.730;9.304;2023-07-22T02:44:42;3.22;;;2.92;;
966;SDS011;56108;48.730;9.304;2023-07-22T02:46:50;3.30;;;2.80;;
966;SDS011;56108;48.730;9.304;2023-07-22T02:48:58;3.38;;;3.08;;
966;SDS011;56108;48.730;9.304;2023-07-22T02:51:07;2.80;;;2.55;;
966;SDS011;56108;48.730;9.304;2023-07-22T02:53:19;2.13;;;2.00;;
966;SDS011;56108;48.730;9.304;2023-07-22T02:55:28;4.13;;;3.75;;
966;SDS011;56108;48.730;9.304;2023-07-22T02:57:36;4.18;;;3.78;;
966;SDS011;56108;48.730;9.304;2023-07-22T02:59:42;2.90;;;2.63;;
966;SDS011;56108;48.730;9.304;2023-07-22T03:01:50;3.35;;;3.05;;
966;SDS011;56108;48.730;9.304;2023-07-22T03:03:59;3.53;;;3.22;;
966;SDS011;56108;48.730;9.304;2023-07-22T03:06:08;3.85;;;3.55;;
966;SDS011;56108;48.730;9.304;2023-07-22T03:08:21;3.50;;;3.20;;
966;SDS011;56108;48.730;9.304;2023-07-22T03:10:29;3.70;;;3.40;;
966;SDS011;56108;48.730;9.304;2023-07-22T03:12:38;4.07;;;3.10;;
966;SDS011;56108;48.730;9.304;2023-07-22T03:14:46;3.15;;;2.95;;
966;SDS011;56108;48.730;9.304;2023-07-22T03:16:55;4.07;;;2.92;;
966;SDS011;56108;48.730;9.304;2023-07-22T03:19:04;3.60;;;3.30;;
966;SDS011;56108;48.730;9.304;2023-07-22T03:21:12;3.58;;;3.28;;
966;SDS011;56108;48.730;9.304;2023-07-22T03:23:23;4.97;;;3.85;;
966;SDS011;56108;48.730;9.304;2023-07-22T03:25:31;3.05;;;2.83;;
966;SDS011;56108;48.730;9.304;2023-07-22T03:27:41;3.35;;;3.10;;
966;SDS011;56108;48.730;9.304;2023-07-22T03:29:50;4.28;;;3.50;;
966;SDS011;56108;48.730;9.304;2023-07-22T03:31:57;3.53;;;3.20;;
966;SDS011;56108;48.730;9.304;2023-07-22T03:34:06;3.25;;;2.95;;
966;SDS011;56108;48.730;9.304;2023-07-22T03:36:14;3.88;;;3.53;;
966;SDS011;56108;48.730;9.304;2023-07-22T03:38:24;3.45;;;3.25;;
966;SDS011;56108;48.730;9.304;2023-07-22T03:40:36;3.35;;;3.10;;
966;SDS011;56108;48.730;9.304;2023-07-22T03:42:44;3.40;;;3.10;;
966;SDS011;56108;48.730;9.304;2023-07-22T03:44:49;3.42;;;3.10;;
966;SDS011;56108;48.730;9.304;2023-07-22T03:46:59;3.60;;;3.20;;
966;SDS011;56108;48.730;9.304;2023-07-22T03:49:07;3.67;;;3.30;;
966;SDS011;56108;48.730;9.304;2023-07-22T03:51:16;5.38;;;4.03;;
966;SDS011;56108;48.730;9.304;2023-07-22T03:53:28;3.70;;;3.40;;
966;SDS011;56108;48.730;9.304;2023-07-22T03:55:36;3.83;;;3.50;;
966;SDS011;56108;48.730;9.304;2023-07-22T03:57:44;3.38;;;2.88;;
966;SDS011;56108;48.730;9.304;2023-07-22T03:59:53;3.63;;;3.33;;
966;SDS011;56108;48.730;9.304;2023-07-22T04:02:01;4.40;;;4.03;;
966;SDS011;56108;48.730;9.304;2023-07-22T04:04:22;3.72;;;3.42;;
966;SDS011;56108;48.730;9.304;2023-07-22T04:06:31;4.55;;;4.13;;
966;SDS011;56108;48.730;9.304;2023-07-22T04:08:42;4.50;;;4.00;;
966;SDS011;56108;48.730;9.304;2023-07-22T04:10:53;4.40;;;4.10;;
966;SDS011;56108;48.730;9.304;2023-07-22T04:13:02;4.63;;;4.25;;
966;SDS011;56108;48.730;9.304;2023-07-22T04:15:11;3.70;;;3.40;;
966;SDS011;56108;48.730;9.304;2023-07-22T04:17:20;7.32;;;4.25;;
966;SDS011;56108;48.730;9.304;2023-07-22T04:19:28;4.88;;;4.40;;
966;SDS011;56108;48.730;9.304;2023-07-22T04:21:36;3.00;;;2.80;;
966;SDS011;56108;48.730;9.304;2023-07-22T04:23:47;4.90;;;4.40;;
966;SDS011;56108;48.730;9.304;2023-07-22T04:25:56;4.90;;;4.45;;
966;SDS011;56108;48.730;9.304;2023-07-22T04:28:04;4.97;;;4.47;;
966;SDS011;56108;48.730;9.304;2023-07-22T04:30:12;4.75;;;4.25;;
966;SDS011;56108;48.730;9.304;2023-07-22T04:32:25;4.53;;;4.13;;
966;SDS011;56108;48.730;9.304;2023-07-22T04:34:33;6.70;;;5.15;;
966;SDS011;56108;48.730;9.304;2023-07-22T04:36:41;6.15;;;5.55;;
966;SDS011;56108;48.730;9.304;2023-07-22T04:38:53;5.78;;;4.40;;
966;SDS011;56108;48.730;9.304;2023-07-22T04:41:02;6.43;;;4.07;;
966;SDS011;56108;48.730;9.304;2023-07-22T04:43:11;4.20;;;3.78;;
966;SDS011;56108;48.730;9.304;2023-07-22T04:45:19;3.40;;;3.10;;
966;SDS011;56108;48.730;9.304;2023-07-22T04:47:28;3.95;;;3.65;;
966;SDS011;56108;48.730;9.304;2023-07-22T04:49:38;4.05;;;3.65;;
966;SDS011;56108;48.730;9.304;2023-07-22T04:51:47;4.03;;;3.72;;
966;SDS011;56108;48.730;9.304;2023-07-22T04:53:58;3.13;;;2.65;;
966;SDS011;56108;48.730;9.304;2023-07-22T04:56:06;3.00;;;2.70;;
966;SDS011;56108;48.730;9.304;2023-07-22T04:58:14;4.07;;;3.20;;
966;SDS011;56108;48.730;9.304;2023-07-22T05:00:22;3.10;;;2.90;;
966;SDS011;56108;48.730;9.304;2023-07-22T05:02:32;2.88;;;2.60;;
966;SDS011;56108;48.730;9.304;2023-07-22T05:04:40;3.67;;;3.38;;
966;SDS011;56108;48.730;9.304;2023-07-22T05:06:48;2.95;;;2.65;;
966;SDS011;56108;48.730;9.304;2023-07-22T05:08:58;3.65;;;3.35;;
966;SDS011;56108;48.730;9.304;2023-07-22T05:11:07;3.00;;;2.70;;
966;SDS011;56108;48.730;9.304;2023-07-22T05:13:15;2.80;;;2.60;;
966;SDS011;56108;48.730;9.304;2023-07-22T05:15:23;2.80;;;2.60;;
966;SDS011;56108;48.730;9.304;2023-07-22T05:17:31;4.93;;;3.15;;
966;SDS011;56108;48.730;9.304;2023-07-22T05:19:44;2.22;;;2.08;;
966;SDS011;56108;48.730;9.304;2023-07-22T05:21:53;2.75;;;2.53;;
966;SDS011;56108;48.730;9.304;2023-07-22T05:24:04;3.05;;;2.72;;
966;SDS011;56108;48.730;9.304;2023-07-22T05:26:12;3.40;;;3.13;;
966;SDS011;56108;48.730;9.304;2023-07-22T05:28:20;2.58;;;2.38;;
966;SDS011;56108;48.730;9.304;2023-07-22T05:30:28;2.63;;;2.42;;
966;SDS011;56108;48.730;9.304;2023-07-22T05:32:39;3.20;;;2.92;;
966;SDS011;56108;48.730;9.304;2023-07-22T05:34:48;3.58;;;3.00;;
966;SDS011;56108;48.730;9.304;2023-07-22T05:36:57;3.00;;;2.80;;
966;SDS011;56108;48.730;9.304;2023-07-22T05:39:08;2.55;;;2.35;;
966;SDS011;56108;48.730;9.304;2023-07-22T05:41:16;3.25;;;2.65;;
966;SDS011;56108;48.730;9.304;2023-07-22T05:43:24;2.65;;;2.45;;
966;SDS011;56108;48.730;9.304;2023-07-22T05:45:32;3.42;;;3.20;;
966;SDS011;56108;48.730;9.304;2023-07-22T05:47:41;2.60;;;2.40;;
966;SDS011;56108;48.730;9.304;2023-07-22T05:49:49;3.15;;;2.83;;
966;SDS011;56108;48.730;9.304;2023-07-22T05:51:57;3.42;;;3.13;;
966;SDS011;56108;48.730;9.304;2023-07-22T05:54:07;3.87;;;3.57;;
966;SDS011;56108;48.730;9.304;2023-07-22T05:56:16;3.27;;;2.97;;
966;SDS011;56108;48.730;9.304;2023-07-22T05:58:24;3.85;;;2.83;;
966;SDS011;56108;48.730;9.304;2023-07-22T06:00:30;3.72;;;2.65;;
966;SDS011;56108;48.730;9.304;2023-07-22T06:02:38;3.73;;;3.43;;
966;SDS011;56108;48.730;9.304;2023-07-22T06:04:44;3.47;;;3.17;;
966;SDS011;56108;48.730;9.304;2023-07-22T06:06:52;3.43;;;3.13;;
966;SDS011;56108;48.730;9.304;2023-07-22T06:09:01;3.60;;;3.10;;
966;SDS011;56108;48.730;9.304;2023-07-22T06:11:12;3.47;;;3.17;;
966;SDS011;56108;48.730;9.304;2023-07-22T06:13:20;3.07;;;2.40;;
966;SDS011;56108;48.730;9.304;2023-07-22T06:15:28;2.53;;;2.33;;
966;SDS011;56108;48.730;9.304;2023-07-22T06:17:40;3.73;;;2.90;;
966;SDS011;56108;48.730;9.304;2023-07-22T06:19:48;3.03;;;2.77;;
966;SDS011;56108;48.730;9.304;2023-07-22T06:21:53;2.13;;;2.03;;
966;SDS011;56108;48.730;9.304;2023-07-22T06:24:04;3.27;;;2.93;;
966;SDS011;56108;48.730;9.304;2023-07-22T06:26:18;3.10;;;2.80;;
966;SDS011;56108;48.730;9.304;2023-07-22T06:28:27;2.63;;;2.40;;
966;SDS011;56108;48.730;9.304;2023-07-22T06:30:37;2.53;;;2.33;;
966;SDS011;56108;48.730;9.304;2023-07-22T06:32:45;2.33;;;2.20;;
966;SDS011;56108;48.730;9.304;2023-07-22T06:34:54;2.90;;;2.40;;
966;SDS011;56108;48.730;9.304;2023-07-22T06:37:02;3.30;;;3.10;;
966;SDS011;56108;48.730;9.304;2023-07-22T06:39:12;2.80;;;2.47;;
966;SDS011;56108;48.730;9.304;2023-07-22T06:41:22;3.10;;;2.57;;
966;SDS011;56108;48.730;9.304;2023-07-22T06:43:31;2.37;;;2.23;;
966;SDS011;56108;48.730;9.304;2023-07-22T06:45:40;2.43;;;2.27;;
966;SDS011;56108;48.730;9.304;2023-07-22T06:47:49;2.67;;;2.40;;
966;SDS011;56108;48.730;9.304;2023-07-22T06:49:57;2.93;;;2.30;;
966;SDS011;56108;48.730;9.304;2023-07-22T06:52:06;6.50;;;5.83;;
966;SDS011;56108;48.730;9.304;2023-07-22T06:54:14;3.57;;;3.27;;
966;SDS011;56108;48.730;9.304;2023-07-22T06:56:25;2.70;;;2.50;;
966;SDS011;56108;48.730;9.304;2023-07-22T06:58:33;3.20;;;2.90;;
966;SDS011;56108;48.730;9.304;2023-07-22T07:00:43;2.50;;;2.40;;
966;SDS011;56108;48.730;9.304;2023-07-22T07:02:52;4.07;;;2.97;;
966;SDS011;56108;48.730;9.304;2023-07-22T07:05:00;2.90;;;2.70;;
966;SDS011;56108;48.730;9.304;2023-07-22T07:07:08;4.57;;;2.60;;
966;SDS011;56108;48.730;9.304;2023-07-22T07:09:17;3.80;;;3.00;;
966;SDS011;56108;48.730;9.304;2023-07-22T07:11:28;2.93;;;2.63;;
966;SDS011;56108;48.730;9.304;2023-07-22T07:13:36;2.60;;;2.37;;
966;SDS011;56108;48.730;9.304;2023-07-22T07:15:45;2.90;;;2.33;;
966;SDS011;56108;48.730;9.304;2023-07-22T07:17:55;2.23;;;2.10;;
966;SDS011;56108;48.730;9.304;2023-07-22T07:20:04;2.70;;;2.33;;
966;SDS011;56108;48.730;9.304;2023-07-22T07:22:13;3.23;;;2.37;;
966;SDS011;56108;48.730;9.304;2023-07-22T07:24:21;2.30;;;2.17;;
966;SDS011;56108;48.730;9.304;2023-07-22T07:26:32;2.80;;;2.47;;
966;SDS011;56108;48.730;9.304;2023-07-22T07:28:40;2.77;;;2.57;;
966;SDS011;56108;48.730;9.304;2023-07-22T07:30:46;2.10;;;2.00;;
966;SDS011;56108;48.730;9.304;2023-07-22T07:32:55;2.50;;;2.30;;
966;SDS011;56108;48.730;9.304;2023-07-22T07:35:03;2.43;;;2.23;;
966;SDS011;56108;48.730;9.304;2023-07-22T07:37:13;2.90;;;2.70;;
966;SDS011;56108;48.730;9.304;2023-07-22T07:39:21;2.30;;;2.10;;
966;SDS011;56108;48.730;9.304;2023-07-22T07:41:32;2.93;;;2.50;;
966;SDS011;56108;48.730;9.304;2023-07-22T07:43:40;2.47;;;2.30;;
966;SDS011;56108;48.730;9.304;2023-07-22T07:45:46;2.33;;;2.13;;
966;SDS011;56108;48.730;9.304;2023-07-22T07:47:56;2.50;;;2.30;;
966;SDS011;56108;48.730;9.304;2023-07-22T07:50:04;2.37;;;2.17;;
966;SDS011;56108;48.730;9.304;2023-07-22T07:52:15;2.90;;;2.60;;
966;SDS011;56108;48.730;9.304;2023-07-22T07:54:23;2.70;;;2.40;;
966;SDS011;56108;48.730;9.304;2023-07-22T07:56:37;2.13;;;2.00;;
966;SDS011;56108;48.730;9.304;2023-07-22T07:58:45;2.20;;;2.00;;
966;SDS011;56108;48.730;9.304;2023-07-22T08:00:54;2.13;;;2.03;;
966;SDS011;56108;48.730;9.304;2023-07-22T08:03:03;2.90;;;2.00;;
966;SDS011;56108;48.730;9.304;2023-07-22T08:05:11;2.17;;;1.97;;
966;SDS011;56108;48.730;9.304;2023-07-22T08:07:21;1.83;;;1.70;;
966;SDS011;56108;48.730;9.304;2023-07-22T08:09:29;4.60;;;2.10;;
966;SDS011;56108;48.730;9.304;2023-07-22T08:11:40;2.37;;;2.17;;
966;SDS011;56108;48.730;9.304;2023-07-22T08:13:48;2.33;;;2.10;;
966;SDS011;56108;48.730;9.304;2023-07-22T08:15:56;4.87;;;2.17;;
966;SDS011;56108;48.730;9.304;2023-07-22T08:18:04;2.20;;;2.10;;
966;SDS011;56108;48.730;9.304;2023-07-22T08:20:13;2.00;;;1.80;;
966;SDS011;56108;48.730;9.304;2023-07-22T08:22:21;1.80;;;1.70;;
966;SDS011;56108;48.730;9.304;2023-07-22T08:24:30;1.60;;;1.50;;
966;SDS011;56108;48.730;9.304;2023-07-22T08:26:40;1.53;;;1.43;;
966;SDS011;56108;48.730;9.304;2023-07-22T08:28:49;1.83;;;1.70;;
966;SDS011;56108;48.730;9.304;2023-07-22T08:30:57;1.83;;;1.73;;
966;SDS011;56108;48.730;9.304;2023-07-22T08:33:06;1.57;;;1.47;;
966;SDS011;56108;48.730;9.304;2023-07-22T08:35:15;2.30;;;1.57;;
966;SDS011;56108;48.730;9.304;2023-07-22T08:37:24;1.67;;;1.57;;
966;SDS011;56108;48.730;9.304;2023-07-22T08:39:32;1.07;;;1.00;;
966;SDS011;56108;48.730;9.304;2023-07-22T08:41:43;1.80;;;1.70;;
966;SDS011;56108;48.730;9.304;2023-07-22T08:43:56;1.50;;;1.37;;
966;SDS011;56108;48.730;9.304;2023-07-22T08:46:07;1.13;;;1.10;;
966;SDS011;56108;48.730;9.304;2023-07-22T08:48:18;2.20;;;1.83;;
966;SDS011;56108;48.730;9.304;2023-07-22T08:50:34;1.33;;;1.23;;
966;SDS011;56108;48.730;9.304;2023-07-22T08:52:49;1.40;;;1.30;;
966;SDS011;56108;48.730;9.304;2023-07-22T08:54:58;1.37;;;1.27;;
966;SDS011;56108;48.730;9.304;2023-07-22T08:57:10;1.50;;;1.40;;
966;SDS011;56108;48.730;9.304;2023-07-22T08:59:19;1.60;;;1.50;;
966;SDS011;56108;48.730;9.304;2023-07-22T09:01:28;1.70;;;1.60;;
966;SDS011;56108;48.730;9.304;2023-07-22T09:03:36;1.50;;;1.40;;
966;SDS011;56108;48.730;9.304;2023-07-22T09:05:46;1.57;;;1.47;;
966;SDS011;56108;48.730;9.304;2023-07-22T09:07:56;1.07;;;1.00;;
966;SDS011;56108;48.730;9.304;2023-07-22T09:10:06;1.50;;;1.40;;
966;SDS011;56108;48.730;9.304;2023-07-22T09:12:18;1.53;;;1.40;;
966;SDS011;56108;48.730;9.304;2023-07-22T09:14:28;1.90;;;1.57;;
966;SDS011;56108;48.730;9.304;2023-07-22T09:16:40;1.20;;;1.10;;
966;SDS011;56108;48.730;9.304;2023-07-22T09:18:49;1.60;;;1.50;;
966;SDS011;56108;48.730;9.304;2023-07-22T09:20:58;1.30;;;1.20;;
966;SDS011;56108;48.730;9.304;2023-07-22T09:23:08;1.33;;;1.20;;
966;SDS011;56108;48.730;9.304;2023-07-22T09:25:18;1.83;;;1.73;;
966;SDS011;56108;48.730;9.304;2023-07-22T09:27:35;1.23;;;1.13;;
966;SDS011;56108;48.730;9.304;2023-07-22T09:29:43;1.70;;;1.60;;
966;SDS011;56108;48.730;9.304;2023-07-22T09:31:54;1.20;;;1.20;;
966;SDS011;56108;48.730;9.304;2023-07-22T09:34:08;1.37;;;1.37;;
966;SDS011;56108;48.730;9.304;2023-07-22T09:36:17;1.47;;;1.37;;
966;SDS011;56108;48.730;9.304;2023-07-22T09:38:25;1.40;;;1.30;;
966;SDS011;56108;48.730;9.304;2023-07-22T09:40:33;1.00;;;0.97;;
966;SDS011;56108;48.730;9.304;2023-07-22T09:42:45;1.87;;;1.60;;
966;SDS011;56108;48.730;9.304;2023-07-22T09:44:55;1.87;;;1.77;;
966;SDS011;56108;48.730;9.304;2023-07-22T09:47:05;1.50;;;1.40;;
966;SDS011;56108;48.730;9.304;2023-07-22T09:49:15;1.20;;;1.20;;
966;SDS011;56108;48.730;9.304;2023-07-22T09:51:25;1.00;;;1.00;;
966;SDS011;56108;48.730;9.304;2023-07-22T09:53:33;1.37;;;1.27;;
966;SDS011;56108;48.730;9.304;2023-07-22T09:55:41;2.57;;;1.70;;
966;SDS011;56108;48.730;9.304;2023-07-22T09:57:53;1.50;;;1.40;;
966;SDS011;56108;48.730;9.304;2023-07-22T10:00:02;1.23;;;1.13;;
966;SDS011;56108;48.730;9.304;2023-07-22T10:02:15;1.53;;;1.30;;
966;SDS011;56108;48.730;9.304;2023-07-22T10:04:27;1.10;;;1.03;;
966;SDS011;56108;48.730;9.304;2023-07-22T10:06:41;1.30;;;1.27;;
966;SDS011;56108;48.730;9.304;2023-07-22T10:08:50;1.20;;;1.20;;
966;SDS011;56108;48.730;9.304;2023-07-22T10:10:59;1.37;;;1.27;;
966;SDS011;56108;48.730;9.304;2023-07-22T10:13:10;1.50;;;1.40;;
966;SDS011;56108;48.730;9.304;2023-07-22T10:15:19;1.17;;;1.17;;
966;SDS011;56108;48.730;9.304;2023-07-22T10:17:28;1.73;;;1.20;;
966;SDS011;56108;48.730;9.304;2023-07-22T10:19:37;1.20;;;1.10;;
966;SDS011;56108;48.730;9.304;2023-07-22T10:21:45;1.17;;;1.07;;
966;SDS011;56108;48.730;9.304;2023-07-22T10:23:54;2.43;;;1.63;;
966;SDS011;56108;48.730;9.304;2023-07-22T10:26:03;1.37;;;1.27;;
966;SDS011;56108;48.730;9.304;2023-07-22T10:28:21;1.40;;;1.30;;
966;SDS011;56108;48.730;9.304;2023-07-22T10:30:29;1.50;;;1.40;;
966;SDS011;56108;48.730;9.304;2023-07-22T10:32:38;0.87;;;0.87;;
966;SDS011;56108;48.730;9.304;2023-07-22T10:34:47;1.00;;;1.00;;
966;SDS011;56108;48.730;9.304;2023-07-22T10:36:55;1.80;;;1.50;;
966;SDS011;56108;48.730;9.304;2023-07-22T10:39:01;1.50;;;1.40;;
966;SDS011;56108;48.730;9.304;2023-07-22T10:41:13;1.50;;;1.40;;
966;SDS011;56108;48.730;9.304;2023-07-22T10:43:27;1.23;;;1.17;;
966;SDS011;56108;48.730;9.304;2023-07-22T10:45:40;1.00;;;1.00;;
966;SDS011;56108;48.730;9.304;2023-07-22T10:47:55;1.30;;;1.20;;
966;SDS011;56108;48.730;9.304;2023-07-22T10:50:08;1.30;;;1.10;;
966;SDS011;56108;48.730;9.304;2023-07-22T10:52:22;1.47;;;1.37;;
966;SDS011;56108;48.730;9.304;2023-07-22T10:54:47;1.17;;;1.07;;
966;SDS011;56108;48.730;9.304;2023-07-22T10:56:56;1.10;;;1.10;;
966;SDS011;56108;48.730;9.304;2023-07-22T10:59:07;0.97;;;0.97;;
966;SDS011;56108;48.730;9.304;2023-07-22T11:01:23;1.20;;;1.10;;
966;SDS011;56108;48.730;9.304;2023-07-22T11:03:31;1.43;;;1.33;;
966;SDS011;56108;48.730;9.304;2023-07-22T11:05:49;1.00;;;1.00;;
966;SDS011;56108;48.730;9.304;2023-07-22T11:08:03;1.40;;;1.30;;
966;SDS011;56108;48.730;9.304;2023-07-22T11:10:15;1.60;;;1.50;;
966;SDS011;56108;48.730;9.304;2023-07-22T11:12:25;0.93;;;0.93;;
966;SDS011;56108;48.730;9.304;2023-07-22T11:14:38;1.67;;;1.40;;
966;SDS011;56108;48.730;9.304;2023-07-22T11:16:46;1.70;;;1.37;;
966;SDS011;56108;48.730;9.304;2023-07-22T11:18:55;1.70;;;1.60;;
966;SDS011;56108;48.730;9.304;2023-07-22T11:21:09;1.07;;;1.00;;
966;SDS011;56108;48.730;9.304;2023-07-22T11:23:17;2.13;;;1.10;;
966;SDS011;56108;48.730;9.304;2023-07-22T11:25:26;1.40;;;1.30;;
966;SDS011;56108;48.730;9.304;2023-07-22T11:27:34;1.57;;;1.47;;
966;SDS011;56108;48.730;9.304;2023-07-22T11:29:45;0.97;;;0.97;;
966;SDS011;56108;48.730;9.304;2023-07-22T11:31:55;0.80;;;0.80;;
966;SDS011;56108;48.730;9.304;2023-07-22T11:34:04;1.77;;;1.47;;
966;SDS011;56108;48.730;9.304;2023-07-22T11:36:12;1.80;;;1.70;;
966;SDS011;56108;48.730;9.304;2023-07-22T11:38:20;1.70;;;1.60;;
966;SDS011;56108;48.730;9.304;2023-07-22T11:40:32;1.50;;;1.40;;
966;SDS011;56108;48.730;9.304;2023-07-22T11:42:41;3.00;;;1.37;;
966;SDS011;56108;48.730;9.304;2023-07-22T11:44:52;1.27;;;1.17;;
966;SDS011;56108;48.730;9.304;2023-07-22T11:47:01;1.60;;;1.50;;
966;SDS011;56108;48.730;9.304;2023-07-22T11:49:12;1.70;;;1.30;;
966;SDS011;56108;48.730;9.304;2023-07-22T11:51:18;2.43;;;1.50;;
966;SDS011;56108;48.730;9.304;2023-07-22T11:53:30;1.30;;;1.27;;
966;SDS011;56108;48.730;9.304;2023-07-22T11:55:39;1.30;;;1.20;;
966;SDS011;56108;48.730;9.304;2023-07-22T11:57:53;1.43;;;1.33;;
966;SDS011;56108;48.730;9.304;2023-07-22T12:00:07;1.30;;;1.20;;
966;SDS011;56108;48.730;9.304;2023-07-22T12:02:17;2.80;;;1.80;;
966;SDS011;56108;48.730;9.304;2023-07-22T12:04:26;1.53;;;1.43;;
966;SDS011;56108;48.730;9.304;2023-07-22T12:06:32;1.43;;;1.30;;
966;SDS011;56108;48.730;9.304;2023-07-22T12:08:45;1.50;;;1.40;;
966;SDS011;56108;48.730;9.304;2023-07-22T12:10:57;1.37;;;1.27;;
966;SDS011;56108;48.730;9.304;2023-07-22T12:13:08;1.10;;;1.10;;
966;SDS011;56108;48.730;9.304;2023-07-22T12:15:20;1.70;;;1.60;;
966;SDS011;56108;48.730;9.304;2023-07-22T12:17:29;1.67;;;1.57;;
966;SDS011;56108;48.730;9.304;2023-07-22T12:19:37;1.50;;;1.40;;
966;SDS011;56108;48.730;9.304;2023-07-22T12:21:45;2.17;;;2.07;;
966;SDS011;56108;48.730;9.304;2023-07-22T12:23:54;1.73;;;1.50;;
966;SDS011;56108;48.730;9.304;2023-07-22T12:26:02;1.70;;;1.60;;
966;SDS011;56108;48.730;9.304;2023-07-22T12:28:12;1.57;;;1.47;;
966;SDS011;56108;48.730;9.304;2023-07-22T12:30:27;1.60;;;1.20;;
966;SDS011;56108;48.730;9.304;2023-07-22T12:32:36;1.77;;;1.67;;
966;SDS011;56108;48.730;9.304;2023-07-22T12:34:44;1.47;;;1.37;;
966;SDS011;56108;48.730;9.304;2023-07-22T12:36:53;1.80;;;1.70;;
966;SDS011;56108;48.730;9.304;2023-07-22T12:39:04;1.10;;;1.10;;
966;SDS011;56108;48.730;9.304;2023-07-22T12:41:12;2.30;;;1.30;;
966;SDS011;56108;48.730;9.304;2023-07-22T12:43:20;1.90;;;1.63;;
966;SDS011;56108;48.730;9.304;2023-07-22T12:45:31;1.40;;;1.30;;
966;SDS011;56108;48.730;9.304;2023-07-22T12:47:41;1.70;;;1.60;;
966;SDS011;56108;48.730;9.304;2023-07-22T12:49:51;1.43;;;1.33;;
966;SDS011;56108;48.730;9.304;2023-07-22T12:51:59;1.30;;;1.30;;
966;SDS011;56108;48.730;9.304;2023-07-22T12:54:12;1.30;;;1.27;;
966;SDS011;56108;48.730;9.304;2023-07-22T12:56:20;1.67;;;1.57;;
966;SDS011;56108;48.730;9.304;2023-07-22T12:58:29;2.17;;;1.30;;
966;SDS011;56108;48.730;9.304;2023-07-22T13:00:41;1.37;;;1.27;;
966;SDS011;56108;48.730;9.304;2023-07-22T13:02:49;2.17;;;1.90;;
966;SDS011;56108;48.730;9.304;2023-07-22T13:04:59;1.60;;;1.50;;
966;SDS011;56108;48.730;9.304;2023-07-22T13:07:10;2.07;;;1.87;;
966;SDS011;56108;48.730;9.304;2023-07-22T13:09:19;1.53;;;1.43;;
966;SDS011;56108;48.730;9.304;2023-07-22T13:11:27;4.30;;;1.47;;
966;SDS011;56108;48.730;9.304;2023-07-22T13:13:35;1.53;;;1.43;;
966;SDS011;56108;48.730;9.304;2023-07-22T13:15:47;1.40;;;1.30;;
966;SDS011;56108;48.730;9.304;2023-07-22T13:17:55;1.77;;;1.67;;
966;SDS011;56108;48.730;9.304;2023-07-22T13:20:05;1.63;;;1.53;;
966;SDS011;56108;48.730;9.304;2023-07-22T13:22:16;1.50;;;1.40;;
966;SDS011;56108;48.730;9.304;2023-07-22T13:24:24;2.03;;;1.57;;